13:40
Airports
History
Links
Donate
Help keep this website running!
PayPal
Bitcoin
This page is community maintained. The information is intended for PC simulator navigation or reference.
Always use approved charts for navigation.
SWGC
Araguacema
Araguacema (SWGC)
Santa Maria das Barreiras, Para, Brazil (68565)
(C)
Lat/Lng:8° 51' 1" S / 49° 41' 2" W
-8.850278 / -49.683888
Elevation:591'ft / 180mMSL
ID / ICAO:SWGC
Runways:1
Longest:12-30
Concrete 1,207m / 3,960ft
Controlled:Yes
Nearby Weather12:00 GMT 2017-11-20
Nearby weather at SBAA, CONCEICAO DO ARAGUAIA located 43.4 nautical miles from SWGC
Altimeter: 29.88
Visibility: 6.2 statute miles
Wind: 2 knots (from 070°)
Temp: 28°c / 82°f
Humidity: 78.9%

METAR: SBAA 201200Z 07002KT CAVOK 28/24 Q1012

(Powered by phpweather)
Runway 12 / 30
Dimensions:1207 x 17.1m 3960' x 56'ft
Surface:Concrete
Edge Lights:Medium intensity
Runway 12 [A]Runway 30 [B]
Heading:103°TH 283°TH
Lat:
Lng:
8° 50' 56.63"S
49° 41' 21.16"W
8° 51' 5.37"S
49° 40' 42.83"W
ALS:MALSMALS
User Notes and Comments
8° 51' 1" S / 49° 41' 2" W
Distance To
Airport ID:
Nearby Airports
(U) ARAGUACEMA 8.7 NM
SJAU E 84°
(C) Piaus 21.7 NM
SNPW W 273°
4 Fazenda Araguaia 36.5 NM
SSWP W 281°
4 Fazenda Boca da Mata 40.7 NM
SNLZ S 171°
(C) CONCEICAO DO ARAGUAIA 43.4 NM
SBAA ( WX ) NE 36°
4 Fazenda Palmeiras 52.3 NM
SIPH S 186°
4 Fazenda Santa Marta 53.4 NM
SDVJ W 279°
VFR Chart
Flight Planning at SkyVector.com